Time;durP1;ratioP1;P1;durP2;ratioP2;P2;SDS_P1;SDS_P2;PMS_P1;PMS_P2;Temp;Humidity;BMP_temperature;BMP_pressure;BME280_temperature;BME280_humidity;BME280_pressure;Samples;Min_cycle;Max_cycle;Signal;HPM_P1;HPM_P2
2021/01/20 00:02:18;;;;;;;72.20;29.58;;;77.70;1920.00;;;;;;5032295;28;20381;-59
2021/01/20 00:04:43;;;;;;;104.75;43.38;;;77.70;1920.00;;;;;;5034026;28;20116;-60
2021/01/20 00:07:09;;;;;;;145.68;50.05;;;77.60;1945.60;;;;;;5036865;28;20374;-60
2021/01/20 00:09:35;;;;;;;105.13;46.38;;;77.60;1945.60;;;;;;5037366;28;20036;-57
2021/01/20 00:12:00;;;;;;;126.00;52.70;;;77.50;1945.60;;;;;;5036995;28;20037;-60
2021/01/20 00:14:26;;;;;;;95.85;44.15;;;77.50;1971.20;;;;;;5037185;28;20049;-58
2021/01/20 00:16:52;;;;;;;118.43;46.63;;;77.50;1971.20;;;;;;5035751;28;20379;-60
2021/01/20 00:19:18;;;;;;;94.32;39.13;;;77.50;1971.20;;;;;;5037016;28;20486;-60
2021/01/20 00:21:44;;;;;;;63.25;29.77;;;77.50;1971.20;;;;;;5019202;28;20107;-58
2021/01/20 00:24:10;;;;;;;77.63;33.15;;;77.40;1996.80;;;;;;5036688;28;20566;-60
2021/01/20 00:26:40;;;;;;;75.90;32.85;;;77.40;1996.80;;;;;;5036418;28;20041;-61
2021/01/20 00:29:06;;;;;;;80.07;34.03;;;77.50;1996.80;;;;;;5019112;28;20033;-61
2021/01/20 00:31:32;;;;;;;79.70;33.63;;;77.40;1996.80;;;;;;5036634;28;20013;-59
2021/01/20 00:33:59;;;;;;;67.00;30.50;;;77.50;1996.80;;;;;;5036626;28;20041;-59
2021/01/20 00:36:25;;;;;;;96.60;37.60;;;77.50;1996.80;;;;;;5035350;28;20256;-60
2021/01/20 00:38:50;;;;;;;97.55;36.95;;;77.40;1996.80;;;;;;5036679;28;20025;-61
2021/01/20 00:41:16;;;;;;;81.05;33.10;;;77.40;2022.40;;;;;;5036663;28;20088;-61
2021/01/20 00:43:42;;;;;;;73.35;32.92;;;102.50;2022.40;;;;;;5035981;28;20398;-61
2021/01/20 00:46:08;;;;;;;62.55;28.38;;;77.40;2022.40;;;;;;5019013;28;20022;-62
2021/01/20 00:48:34;;;;;;;42.75;22.58;;;77.50;2022.40;;;;;;5036289;28;20049;-61
2021/01/20 00:51:00;;;;;;;57.10;27.73;;;77.50;1996.80;;;;;;5036061;28;20474;-63
2021/01/20 00:53:25;;;;;;;45.08;22.58;;;77.50;2022.40;;;;;;5036283;28;20029;-61
2021/01/20 00:55:51;;;;;;;53.80;24.92;;;77.40;2022.40;;;;;;5034854;28;20049;-61
2021/01/20 00:58:17;;;;;;;51.72;24.83;;;77.40;2022.40;;;;;;5036275;28;20017;-61
2021/01/20 01:00:43;;;;;;;40.00;21.23;;;77.50;2022.40;;;;;;5036525;28;20030;-61
2021/01/20 01:03:09;;;;;;;53.25;25.45;;;77.50;2022.40;;;;;;5036052;28;20453;-61
2021/01/20 01:05:36;;;;;;;40.67;22.25;;;77.50;2022.40;;;;;;5035960;28;20466;-61
2021/01/20 01:08:02;;;;;;;47.28;22.70;;;77.40;2022.40;;;;;;5036346;28;20040;-60
2021/01/20 01:10:27;;;;;;;49.60;23.42;;;77.50;2022.40;;;;;;5035990;28;20025;-61
2021/01/20 01:12:53;;;;;;;41.58;21.10;;;77.50;1996.80;;;;;;5036208;28;20021;-61
2021/01/20 01:15:19;;;;;;;37.70;21.70;;;77.50;1996.80;;;;;;5036053;28;20041;-61
2021/01/20 01:17:45;;;;;;;35.65;19.05;;;77.60;1996.80;;;;;;5035866;28;20029;-60
2021/01/20 01:20:12;;;;;;;58.42;27.33;;;77.60;1971.20;;;;;;5035832;28;20044;-60
2021/01/20 01:22:38;;;;;;;43.65;20.63;;;77.60;1971.20;;;;;;5035535;28;20096;-61
2021/01/20 01:25:04;;;;;;;74.78;29.95;;;77.70;1971.20;;;;;;5035809;28;20029;-60
2021/01/20 01:27:30;;;;;;;39.30;19.52;;;77.70;1971.20;;;;;;5035693;28;20117;-57
2021/01/20 01:29:56;;;;;;;46.97;21.02;;;77.70;1971.20;;;;;;5035605;28;20049;-61
2021/01/20 01:32:22;;;;;;;120.88;43.35;;;77.70;1996.80;;;;;;5035696;28;20051;-61
2021/01/20 01:34:48;;;;;;;58.47;25.35;;;77.70;1971.20;;;;;;5035276;28;20051;-61
2021/01/20 01:37:13;;;;;;;54.60;24.70;;;77.70;1971.20;;;;;;5035566;28;20113;-60
2021/01/20 01:39:39;;;;;;;68.72;28.52;;;77.70;1971.20;;;;;;5035241;28;20026;-60
2021/01/20 01:42:05;;;;;;;40.22;20.00;;;102.40;1971.20;;;;;;5035298;28;20026;-61
2021/01/20 01:44:31;;;;;;;48.30;21.40;;;102.40;1945.60;;;;;;5035318;28;20113;-61
2021/01/20 01:46:57;;;;;;;82.10;31.30;;;102.40;1945.60;;;;;;5035490;28;20030;-61
2021/01/20 01:49:24;;;;;;;32.78;15.15;;;102.50;1945.60;;;;;;5034913;28;20049;-61
2021/01/20 01:51:52;;;;;;;32.35;15.23;;;102.50;1920.00;;;;;;5035274;28;20021;-60
2021/01/20 01:54:18;;;;;;;64.70;24.50;;;102.60;1920.00;;;;;;5035115;28;20045;-60
2021/01/20 01:56:44;;;;;;;33.42;16.05;;;102.60;1920.00;;;;;;5035009;28;20033;-61
2021/01/20 01:59:14;;;;;;;28.00;14.55;;;103.10;1894.40;;;;;;5034980;28;20033;-60
2021/01/20 02:01:40;;;;;;;42.65;19.00;;;102.70;1894.40;;;;;;5034943;28;20485;-60
2021/01/20 02:04:06;;;;;;;49.70;21.27;;;102.80;1894.40;;;;;;5034680;28;20033;-60
2021/01/20 02:06:32;;;;;;;22.52;12.90;;;102.80;1894.40;;;;;;5035029;28;20364;-59
2021/01/20 02:08:58;;;;;;;43.25;19.52;;;102.90;1868.80;;;;;;5035096;28;20104;-58
2021/01/20 02:12:10;;;;;;;21.08;11.23;;;102.90;1868.80;;;;;;5034846;28;20475;-59
2021/01/20 02:14:49;;;;;;;39.80;18.05;;;102.90;1868.80;;;;;;4973160;28;20043;-58
2021/01/20 02:17:29;;;;;;;29.95;14.68;;;102.90;1868.80;;;;;;4973759;28;20023;-58
2021/01/20 02:19:55;;;;;;;20.40;11.75;;;102.90;1868.80;;;;;;4974090;28;20045;-59
2021/01/20 02:22:32;;;;;;;23.73;13.43;;;103.00;1868.80;;;;;;4973519;28;20400;-60
2021/01/20 02:25:14;;;;;;;29.95;15.80;;;103.10;1843.20;;;;;;4973812;28;20393;-60
2021/01/20 02:28:25;;;;;;;26.92;13.38;;;103.00;1868.80;;;;;;4973594;28;20111;-60
2021/01/20 02:30:52;;;;;;;25.92;12.57;;;103.00;1843.20;;;;;;4953239;28;20042;-59
2021/01/20 02:33:21;;;;;;;17.40;10.52;;;103.00;1843.20;;;;;;4954209;29;20122;-61
2021/01/20 02:35:56;;;;;;;27.90;13.70;;;103.10;1843.20;;;;;;4954384;29;20079;-62
2021/01/20 02:38:25;;;;;;;20.63;11.55;;;103.10;1843.20;;;;;;4938297;29;20038;-61
2021/01/20 02:40:51;;;;;;;27.30;12.73;;;103.10;1843.20;;;;;;4938118;29;20035;-59
2021/01/20 02:43:24;;;;;;;22.75;11.15;;;103.10;1843.20;;;;;;4953463;29;20039;-60
2021/01/20 02:45:51;;;;;;;16.08;9.90;;;103.20;1817.60;;;;;;4953688;29;20031;-60
2021/01/20 02:48:17;;;;;;;18.42;10.55;;;103.20;1817.60;;;;;;4954222;29;20039;-60
2021/01/20 02:50:44;;;;;;;29.60;14.90;;;103.20;1817.60;;;;;;4947902;29;20040;-60
2021/01/20 02:53:14;;;;;;;17.65;10.60;;;128.00;1843.20;;;;;;4953694;29;20027;-60
2021/01/20 02:55:54;;;;;;;20.60;11.68;;;103.20;1817.60;;;;;;4937897;29;20049;-60
2021/01/20 02:58:27;;;;;;;19.98;11.43;;;103.30;1843.20;;;;;;4953796;29;20027;-61
2021/01/20 03:00:55;;;;;;;28.92;13.13;;;103.20;1843.20;;;;;;4953887;29;20051;-61
2021/01/20 03:03:23;;;;;;;30.98;14.65;;;103.20;1843.20;;;;;;4954154;29;20023;-62
2021/01/20 03:05:50;;;;;;;22.10;11.82;;;103.20;1843.20;;;;;;4952769;29;20469;-61
2021/01/20 03:08:17;;;;;;;17.35;10.20;;;103.20;1843.20;;;;;;5019445;28;20033;-59
2021/01/20 03:10:42;;;;;;;17.88;10.50;;;103.20;1843.20;;;;;;5033894;28;20025;-60
2021/01/20 03:13:08;;;;;;;53.83;21.00;;;103.20;1843.20;;;;;;5033548;28;20459;-61
2021/01/20 03:15:39;;;;;;;44.35;20.15;;;103.20;1843.20;;;;;;5015674;28;20079;-59
2021/01/20 03:18:06;;;;;;;21.88;12.10;;;103.20;1843.20;;;;;;5033800;28;20033;-60
2021/01/20 03:20:32;;;;;;;18.63;11.93;;;103.20;1843.20;;;;;;5033434;28;20033;-59
2021/01/20 03:22:58;;;;;;;20.30;11.80;;;103.20;1843.20;;;;;;5033413;28;20045;-60
2021/01/20 03:25:24;;;;;;;21.08;12.48;;;103.20;1843.20;;;;;;5033717;28;20101;-60
2021/01/20 03:27:50;;;;;;;34.97;17.85;;;103.20;1868.80;;;;;;5033473;28;20033;-60
2021/01/20 03:30:17;;;;;;;29.30;15.30;;;103.20;1868.80;;;;;;5033304;28;20033;-60
2021/01/20 03:32:43;;;;;;;37.42;18.70;;;103.20;1868.80;;;;;;5033551;28;20044;-62
2021/01/20 03:35:09;;;;;;;31.80;16.80;;;103.20;1868.80;;;;;;5033389;28;20030;-62
2021/01/20 03:37:35;;;;;;;26.40;13.85;;;103.30;1868.80;;;;;;5033783;28;20421;-62
2021/01/20 03:40:02;;;;;;;22.92;12.68;;;103.20;1868.80;;;;;;5033674;28;20030;-61
2021/01/20 03:42:28;;;;;;;45.85;26.15;;;103.30;1868.80;;;;;;5033501;28;20028;-58
2021/01/20 03:44:54;;;;;;;33.20;19.55;;;128.00;1868.80;;;;;;5032526;28;20053;-60
2021/01/20 03:47:20;;;;;;;16.27;9.85;;;128.00;1868.80;;;;;;5033577;28;20037;-60
2021/01/20 03:49:46;;;;;;;38.35;23.10;;;128.00;1868.80;;;;;;5033472;28;20026;-61
2021/01/20 03:52:11;;;;;;;57.40;34.90;;;128.00;1868.80;;;;;;5033526;28;20380;-59
2021/01/20 03:54:37;;;;;;;24.90;16.38;;;128.00;1868.80;;;;;;5033241;28;20477;-59
2021/01/20 03:57:04;;;;;;;49.15;30.33;;;128.00;1868.80;;;;;;5033540;28;20022;-60
2021/01/20 03:59:30;;;;;;;61.13;35.42;;;128.00;1894.40;;;;;;5014336;28;20045;-58
2021/01/20 04:01:57;;;;;;;31.60;18.90;;;128.00;1894.40;;;;;;5033040;28;20026;-60
2021/01/20 04:04:23;;;;;;;44.63;26.15;;;128.10;1894.40;;;;;;5033168;28;20057;-59
2021/01/20 04:06:49;;;;;;;71.85;38.90;;;128.10;1868.80;;;;;;5033422;28;20104;-60
2021/01/20 04:09:15;;;;;;;54.28;29.67;;;128.10;1868.80;;;;;;5033301;28;20108;-60
2021/01/20 04:11:41;;;;;;;44.67;25.92;;;128.10;1894.40;;;;;;5033495;28;20029;-58
2021/01/20 04:14:06;;;;;;;26.05;15.50;;;128.20;1868.80;;;;;;5033083;28;20091;-58
2021/01/20 04:16:32;;;;;;;52.80;29.42;;;128.30;1868.80;;;;;;5032886;28;20455;-59
2021/01/20 04:18:58;;;;;;;27.17;15.98;;;128.30;1868.80;;;;;;5033138;28;20021;-58
2021/01/20 04:21:23;;;;;;;20.88;13.45;;;128.30;1868.80;;;;;;5033406;28;20033;-59
2021/01/20 04:23:49;;;;;;;25.23;14.85;;;128.30;1868.80;;;;;;5032888;28;20049;-59
2021/01/20 04:26:15;;;;;;;17.88;11.50;;;128.30;1868.80;;;;;;5032938;28;20076;-59
2021/01/20 04:28:41;;;;;;;16.95;11.43;;;128.40;1868.80;;;;;;5032893;28;20053;-57
2021/01/20 04:31:07;;;;;;;18.90;12.02;;;128.40;1868.80;;;;;;5033288;28;20040;-59
2021/01/20 04:33:32;;;;;;;16.83;10.02;;;128.40;1868.80;;;;;;5036386;28;20124;-59
2021/01/20 04:35:58;;;;;;;18.30;11.38;;;128.40;1868.80;;;;;;5036700;28;20133;-59
2021/01/20 04:38:24;;;;;;;18.67;10.50;;;128.40;1868.80;;;;;;5036894;28;20084;-58
2021/01/20 04:40:54;;;;;;;16.33;10.30;;;128.40;1894.40;;;;;;5036747;28;20026;-58
2021/01/20 04:43:20;;;;;;;23.73;13.13;;;128.50;1894.40;;;;;;5036432;28;20475;-58
2021/01/20 04:45:48;;;;;;;16.83;9.18;;;128.50;1894.40;;;;;;5036319;28;20440;-60
2021/01/20 04:48:15;;;;;;;31.42;16.35;;;128.40;1894.40;;;;;;5036476;28;20025;-59
2021/01/20 04:50:43;;;;;;;24.23;13.05;;;128.50;1894.40;;;;;;5036633;28;20156;-58
2021/01/20 04:53:13;;;;;;;18.02;10.40;;;128.50;1894.40;;;;;;5036281;28;20471;-60
2021/01/20 04:55:41;;;;;;;21.23;12.52;;;128.50;1894.40;;;;;;5036426;28;20037;-59
2021/01/20 04:58:10;;;;;;;22.10;13.60;;;128.50;1920.00;;;;;;5036033;28;20033;-58
2021/01/20 05:00:38;;;;;;;20.63;12.23;;;128.50;1920.00;;;;;;5036187;28;20041;-59
2021/01/20 05:03:08;;;;;;;20.88;12.95;;;128.50;1920.00;;;;;;5036316;28;20025;-59
2021/01/20 05:05:34;;;;;;;20.38;12.93;;;128.40;1920.00;;;;;;5036280;28;20037;-60
2021/01/20 05:08:02;;;;;;;21.67;12.23;;;128.40;1945.60;;;;;;5036254;28;20034;-60
2021/01/20 05:10:28;;;;;;;23.55;14.20;;;128.50;1945.60;;;;;;5036123;28;20025;-60
2021/01/20 05:12:53;;;;;;;18.05;12.05;;;128.50;1945.60;;;;;;5035595;28;20557;-60
2021/01/20 05:15:32;;;;;;;21.45;13.50;;;128.50;1945.60;;;;;;5035822;28;20051;-58
2021/01/20 05:18:05;;;;;;;18.58;11.90;;;128.50;1945.60;;;;;;5036173;28;20095;-58
2021/01/20 05:20:38;;;;;;;22.42;12.80;;;128.60;1945.60;;;;;;5036195;28;20061;-59
2021/01/20 05:23:06;;;;;;;24.08;14.45;;;128.60;1945.60;;;;;;5035533;28;20410;-59
2021/01/20 05:25:36;;;;;;;28.35;16.77;;;128.60;1945.60;;;;;;5033860;28;20036;-58
2021/01/20 05:28:21;;;;;;;83.95;34.25;;;128.60;1945.60;;;;;;5035582;28;20090;-58
2021/01/20 05:30:50;;;;;;;32.35;18.02;;;128.60;1945.60;;;;;;5035552;28;20026;-58
2021/01/20 05:33:19;;;;;;;41.22;22.27;;;128.70;1945.60;;;;;;5035152;28;20064;-58
2021/01/20 05:35:45;;;;;;;57.72;31.88;;;128.70;1945.60;;;;;;5035519;28;20025;-59
2021/01/20 05:38:11;;;;;;;36.78;21.73;;;128.80;1945.60;;;;;;5035363;28;20017;-59
2021/01/20 05:40:37;;;;;;;48.15;28.92;;;128.80;1920.00;;;;;;5035669;28;20348;-58
2021/01/20 05:43:04;;;;;;;37.53;22.08;;;128.80;1945.60;;;;;;5028711;28;20018;-60
2021/01/20 05:45:30;;;;;;;30.90;19.88;;;128.80;1920.00;;;;;;5029272;28;20033;-61
2021/01/20 05:48:02;;;;;;;37.80;21.95;;;128.90;1920.00;;;;;;5030018;28;20378;-60
2021/01/20 05:50:28;;;;;;;37.92;22.25;;;128.90;1945.60;;;;;;5031621;28;20052;-60
2021/01/20 05:53:08;;;;;;;40.65;23.65;;;128.80;1945.60;;;;;;5029982;28;20022;-61
2021/01/20 05:55:34;;;;;;;40.40;23.88;;;128.70;1971.20;;;;;;5026176;28;20041;-60
2021/01/20 05:58:01;;;;;;;87.75;39.13;;;128.70;1971.20;;;;;;5030745;28;20037;-61
2021/01/20 06:00:28;;;;;;;67.72;35.75;;;128.60;1971.20;;;;;;5029600;28;20025;-61
2021/01/20 06:02:58;;;;;;;53.03;31.17;;;128.60;1971.20;;;;;;5030192;28;20396;-59
2021/01/20 06:05:25;;;;;;;64.00;37.05;;;128.50;1996.80;;;;;;5027706;28;20534;-60
2021/01/20 06:07:53;;;;;;;42.95;24.70;;;128.50;1996.80;;;;;;5033352;28;20471;-60
2021/01/20 06:10:23;;;;;;;48.17;27.17;;;128.40;1996.80;;;;;;5034893;28;20032;-60
2021/01/20 06:12:49;;;;;;;91.57;50.78;;;128.40;2022.40;;;;;;5034912;28;20036;-60
2021/01/20 06:15:15;;;;;;;56.60;33.22;;;128.30;2022.40;;;;;;5033670;28;20102;-60
2021/01/20 06:17:48;;;;;;;48.92;29.60;;;128.30;2022.40;;;;;;5034654;28;20480;-58
2021/01/20 06:20:16;;;;;;;51.72;35.28;;;128.30;2022.40;;;;;;5034437;28;20017;-60
2021/01/20 06:22:47;;;;;;;94.53;55.10;;;128.30;2022.40;;;;;;5034659;28;20483;-60
2021/01/20 06:25:32;;;;;;;100.18;57.97;;;128.30;2048.00;;;;;;5034659;28;20030;-60
2021/01/20 06:28:16;;;;;;;307.55;107.63;;;128.10;2073.60;;;;;;5034602;28;20356;-60
2021/01/20 06:30:44;;;;;;;204.52;67.03;;;128.20;2073.60;;;;;;5034652;28;20537;-60
2021/01/20 06:33:12;;;;;;;152.05;58.03;;;128.10;2073.60;;;;;;5034505;28;20042;-60
2021/01/20 06:35:46;;;;;;;59.13;31.27;;;128.00;2099.20;;;;;;5033315;28;20022;-58
2021/01/20 06:38:30;;;;;;;40.28;23.20;;;103.30;2073.60;;;;;;5034490;28;20032;-59
2021/01/20 06:40:57;;;;;;;60.00;34.90;;;103.30;2073.60;;;;;;5034423;28;20034;-60
2021/01/20 06:43:50;;;;;;;65.43;36.35;;;103.30;2073.60;;;;;;5034128;28;20038;-61
2021/01/20 06:46:28;;;;;;;49.78;26.67;;;128.10;2099.20;;;;;;5029661;28;20045;-60
2021/01/20 06:48:53;;;;;;;35.25;18.80;;;128.30;2099.20;;;;;;5034445;28;20100;-59
2021/01/20 06:51:24;;;;;;;50.53;29.42;;;128.50;2048.00;;;;;;5034230;28;20048;-60
2021/01/20 06:54:13;;;;;;;42.78;24.45;;;128.70;2048.00;;;;;;5033157;28;20387;-60
2021/01/20 06:56:40;;;;;;;57.67;39.45;;;128.80;2022.40;;;;;;4915731;29;20115;-58
2021/01/20 06:59:27;;;;;;;32.85;19.02;;;153.60;2022.40;;;;;;4915714;29;20047;-60
2021/01/20 07:02:01;;;;;;;46.45;26.65;;;153.70;2022.40;;;;;;4915686;29;20032;-60
2021/01/20 07:04:50;;;;;;;59.35;30.80;;;153.80;1996.80;;;;;;4915585;29;20024;-60
2021/01/20 07:07:54;;;;;;;57.75;31.23;;;153.80;1996.80;;;;;;4910237;29;20038;-60
2021/01/20 07:10:24;;;;;;;75.43;35.45;;;153.90;1996.80;;;;;;4915694;29;20551;-58
2021/01/20 07:13:10;;;;;;;77.22;39.42;;;154.00;1971.20;;;;;;4915362;29;20209;-59
2021/01/20 07:15:43;;;;;;;53.13;29.10;;;154.00;1996.80;;;;;;4877727;29;20045;-60
2021/01/20 07:18:10;;;;;;;44.25;26.65;;;154.10;1971.20;;;;;;4877945;29;20563;-59
2021/01/20 07:20:36;;;;;;;39.00;24.08;;;154.00;1996.80;;;;;;4877635;29;20527;-57
2021/01/20 07:23:02;;;;;;;36.08;20.60;;;154.20;1971.20;;;;;;4877552;29;20105;-59
2021/01/20 07:25:28;;;;;;;43.65;23.13;;;154.20;1971.20;;;;;;4877842;29;20040;-58
2021/01/20 07:27:53;;;;;;;39.00;20.60;;;154.40;1971.20;;;;;;4877724;29;20399;-59
2021/01/20 07:30:20;;;;;;;31.63;17.67;;;154.40;1971.20;;;;;;4877881;29;20131;-60
2021/01/20 07:32:46;;;;;;;67.93;39.05;;;154.50;1945.60;;;;;;4886045;29;20454;-60
2021/01/20 07:35:23;;;;;;;45.88;24.20;;;154.50;1945.60;;;;;;4953103;29;20055;-60
2021/01/20 07:38:02;;;;;;;41.22;23.33;;;154.50;1971.20;;;;;;4953299;29;20039;-60
2021/01/20 07:40:32;;;;;;;73.78;39.63;;;179.20;1945.60;;;;;;4953433;29;20049;-60
2021/01/20 07:42:59;;;;;;;205.90;90.10;;;179.30;1971.20;;;;;;4952828;29;20055;-59
2021/01/20 07:45:41;;;;;;;119.90;59.60;;;179.40;1945.60;;;;;;4953355;29;20410;-59
2021/01/20 07:48:08;;;;;;;75.05;37.70;;;179.50;1945.60;;;;;;4953200;29;20488;-60
2021/01/20 07:50:40;;;;;;;123.93;58.15;;;179.60;1945.60;;;;;;4953137;29;20070;-60
2021/01/20 07:53:09;;;;;;;91.90;39.72;;;179.60;1945.60;;;;;;4993203;28;20045;-59
2021/01/20 07:55:35;;;;;;;97.75;43.80;;;179.60;1945.60;;;;;;5013825;28;20433;-59
2021/01/20 07:58:01;;;;;;;63.15;31.40;;;179.70;1945.60;;;;;;5013519;28;20144;-59
2021/01/20 08:00:27;;;;;;;95.22;45.65;;;179.60;1945.60;;;;;;5013557;28;20041;-60
2021/01/20 08:02:53;;;;;;;56.30;33.33;;;179.60;1971.20;;;;;;5013125;28;20030;-61
2021/01/20 08:05:19;;;;;;;95.45;44.22;;;179.60;1971.20;;;;;;5014312;28;20025;-59
2021/01/20 08:07:46;;;;;;;61.45;32.60;;;179.70;1971.20;;;;;;5017505;28;20156;-59
2021/01/20 08:10:21;;;;;;;69.65;36.72;;;179.70;1996.80;;;;;;5017141;28;20037;-60
2021/01/20 08:12:48;;;;;;;;;;;179.70;2022.40;;;;;;5017871;28;20029;-57
2021/01/20 08:15:15;;;;;;;20.42;12.73;;;179.60;2022.40;;;;;;5017095;28;20397;-60
2021/01/20 08:17:43;;;;;;;32.30;19.90;;;179.50;2048.00;;;;;;5017338;28;20435;-61
2021/01/20 08:20:11;;;;;;;43.45;23.85;;;179.60;2048.00;;;;;;5016756;28;20029;-60
2021/01/20 08:22:45;;;;;;;56.78;25.48;;;179.50;2073.60;;;;;;5017085;28;20369;-57
2021/01/20 08:25:17;;;;;;;46.60;24.60;;;179.60;2073.60;;;;;;5036787;28;20423;-57
2021/01/20 08:27:44;;;;;;;89.20;45.30;;;179.60;2099.20;;;;;;5036772;28;20101;-60
2021/01/20 08:30:12;;;;;;;59.38;33.53;;;179.70;2099.20;;;;;;5036623;28;20032;-59
2021/01/20 08:32:59;;;;;;;50.28;29.33;;;179.60;2099.20;;;;;;5036510;28;20017;-57
2021/01/20 08:35:26;;;;;;;55.40;32.42;;;179.70;2099.20;;;;;;5036336;28;20063;-59
2021/01/20 08:37:52;;;;;;;53.03;32.33;;;179.80;2099.20;;;;;;5036746;28;20025;-60
2021/01/20 08:40:17;;;;;;;54.42;30.67;;;180.00;2073.60;;;;;;5036651;28;20108;-60
2021/01/20 08:42:44;;;;;;;33.45;21.15;;;180.10;2073.60;;;;;;5036301;28;20028;-60
2021/01/20 08:45:15;;;;;;;48.65;29.35;;;204.80;2048.00;;;;;;5036497;28;20471;-59
2021/01/20 08:47:47;;;;;;;45.70;26.95;;;204.90;2048.00;;;;;;5036631;28;20468;-60
2021/01/20 08:50:17;;;;;;;35.72;20.92;;;205.00;2022.40;;;;;;5036552;28;20044;-60
2021/01/20 08:52:51;;;;;;;42.38;23.38;;;205.10;2022.40;;;;;;5036449;28;20491;-59
2021/01/20 08:55:34;;;;;;;35.45;20.25;;;205.30;1996.80;;;;;;5036244;28;20072;-60
2021/01/20 08:58:18;;;;;;;66.72;34.47;;;205.50;1971.20;;;;;;5031199;28;20022;-59
2021/01/20 09:00:45;;;;;;;32.00;17.15;;;205.60;1945.60;;;;;;5032062;28;20081;-59
2021/01/20 09:03:21;;;;;;;21.33;12.68;;;205.60;1945.60;;;;;;5034698;28;20026;-59
2021/01/20 09:05:47;;;;;;;50.53;25.02;;;230.40;1920.00;;;;;;5034618;28;20025;-59
2021/01/20 09:08:14;;;;;;;41.60;22.88;;;230.60;1894.40;;;;;;5035384;28;20049;-58
2021/01/20 09:10:39;;;;;;;33.22;20.77;;;230.70;1868.80;;;;;;5034934;28;20025;-60
2021/01/20 09:13:05;;;;;;;41.38;23.73;;;230.70;1868.80;;;;;;5035378;28;20058;-58
2021/01/20 09:15:31;;;;;;;26.45;15.85;;;230.80;1868.80;;;;;;5035164;28;20034;-59
2021/01/20 09:17:57;;;;;;;26.77;15.27;;;230.70;1843.20;;;;;;5034390;28;20534;-59
2021/01/20 09:20:23;;;;;;;26.50;15.35;;;230.60;1843.20;;;;;;5017135;28;20572;-59
2021/01/20 09:22:49;;;;;;;33.25;17.10;;;230.60;1843.20;;;;;;5034903;28;20069;-60
2021/01/20 09:25:15;;;;;;;24.77;14.85;;;230.50;1843.20;;;;;;5034880;28;20033;-60
2021/01/20 09:27:40;;;;;;;28.85;16.02;;;205.70;1868.80;;;;;;5035088;28;20025;-60
2021/01/20 09:30:08;;;;;;;42.95;22.90;;;205.70;1868.80;;;;;;5034599;28;20037;-60
2021/01/20 09:32:40;;;;;;;33.08;19.58;;;205.60;1894.40;;;;;;5034542;28;20378;-59
2021/01/20 09:35:10;;;;;;;25.85;15.63;;;205.60;1894.40;;;;;;5035123;28;20116;-59
2021/01/20 09:37:38;;;;;;;28.60;15.68;;;205.50;1894.40;;;;;;5034929;28;20021;-60
2021/01/20 09:40:07;;;;;;;18.27;9.50;;;205.60;1894.40;;;;;;5035226;28;20021;-62
2021/01/20 09:42:33;;;;;;;33.10;19.30;;;205.70;1894.40;;;;;;5030814;28;20108;-57
2021/01/20 09:44:59;;;;;;;38.72;19.92;;;230.50;1843.20;;;;;;5034519;28;20026;-57
2021/01/20 09:47:24;;;;;;;25.27;14.20;;;230.80;1792.00;;;;;;5034434;28;20028;-59
2021/01/20 09:49:50;;;;;;;27.02;14.68;;;256.10;1715.20;;;;;;5034976;28;20025;-59
2021/01/20 09:52:17;;;;;;;27.83;14.25;;;256.40;1664.00;;;;;;5034599;28;20099;-58
2021/01/20 09:54:43;;;;;;;13.85;8.20;;;256.70;1612.80;;;;;;5034698;28;20137;-57
2021/01/20 09:57:09;;;;;;;22.92;12.43;;;281.60;1612.80;;;;;;5034114;28;20375;-60
2021/01/20 09:59:35;;;;;;;18.58;10.30;;;281.60;1587.20;;;;;;5034494;28;20034;-60
2021/01/20 10:02:01;;;;;;;21.65;11.90;;;281.60;1587.20;;;;;;5034255;28;20029;-58
2021/01/20 10:04:26;;;;;;;37.30;22.92;;;256.90;1561.60;;;;;;5034203;28;20030;-59
2021/01/20 10:06:55;;;;;;;62.72;40.70;;;256.80;1587.20;;;;;;5034467;28;20021;-61
2021/01/20 10:09:21;;;;;;;29.27;18.85;;;256.80;1587.20;;;;;;5034655;28;20033;-61
2021/01/20 10:11:49;;;;;;;26.75;17.60;;;256.80;1587.20;;;;;;5034216;28;20525;-60
2021/01/20 10:14:16;;;;;;;21.67;14.98;;;256.70;1587.20;;;;;;5025392;28;20414;-62
2021/01/20 10:16:46;;;;;;;30.52;19.05;;;256.60;1587.20;;;;;;5034237;28;20017;-60
2021/01/20 10:19:21;;;;;;;45.22;26.50;;;256.80;1587.20;;;;;;5034284;28;20368;-60
2021/01/20 10:21:46;;;;;;;;;;;256.90;1561.60;;;;;;5034512;28;20183;-60
2021/01/20 10:24:12;;;;;;;47.20;25.23;;;281.80;1561.60;;;;;;5045800;28;20454;-59
2021/01/20 10:26:39;;;;;;;42.65;21.70;;;282.00;1536.00;;;;;;5053202;28;20028;-58
2021/01/20 10:29:06;;;;;;;52.72;29.23;;;282.50;1484.80;;;;;;5053638;28;20013;-59
2021/01/20 10:31:32;;;;;;;37.58;20.25;;;307.30;1459.20;;;;;;5054006;28;20083;-58
2021/01/20 10:33:59;;;;;;;78.80;41.45;;;307.50;1433.60;;;;;;5053844;28;20505;-59
2021/01/20 10:36:26;;;;;;;78.40;42.38;;;307.60;1433.60;;;;;;5053902;28;20443;-57
2021/01/20 10:38:53;;;;;;;45.10;25.45;;;307.80;1408.00;;;;;;5053909;28;20057;-57
2021/01/20 10:41:22;;;;;;;24.90;14.18;;;332.90;1382.40;;;;;;5054118;28;20407;-58
2021/01/20 10:43:49;;;;;;;68.38;33.80;;;333.20;1356.80;;;;;;5053874;28;20079;-57
2021/01/20 10:46:16;;;;;;;51.63;26.98;;;333.60;1305.60;;;;;;5053588;28;20021;-58
2021/01/20 10:48:42;;;;;;;40.03;24.52;;;359.20;1203.20;;;;;;5053709;28;20546;-57
2021/01/20 10:51:10;;;;;;;77.15;41.17;;;384.90;1100.80;;;;;;5053239;28;20112;-57
2021/01/20 10:53:39;;;;;;;27.35;16.45;;;435.20;1049.60;;;;;;5053230;28;20537;-60
2021/01/20 10:56:06;;;;;;;29.88;18.70;;;460.80;972.80;;;;;;5053682;28;20086;-59
2021/01/20 10:58:33;;;;;;;51.28;31.33;;;461.60;896.00;;;;;;5053213;28;20021;-58
2021/01/20 11:00:59;;;;;;;28.13;17.85;;;486.40;870.40;;;;;;5053320;28;20486;-59
2021/01/20 11:03:25;;;;;;;69.43;41.95;;;486.60;870.40;;;;;;5053567;28;20379;-58
2021/01/20 11:05:51;;;;;;;37.08;22.35;;;461.70;870.40;;;;;;5052861;28;20028;-59
2021/01/20 11:08:16;;;;;;;44.00;25.35;;;461.50;896.00;;;;;;5053212;28;20100;-58
2021/01/20 11:10:42;;;;;;;47.47;29.83;;;461.00;947.20;;;;;;5053197;28;20025;-59
2021/01/20 11:13:08;;;;;;;58.10;33.90;;;435.50;998.40;;;;;;5053030;28;20021;-59
2021/01/20 11:15:35;;;;;;;47.10;26.65;;;435.70;972.80;;;;;;5052797;28;20036;-60
2021/01/20 11:18:02;;;;;;;60.60;35.97;;;435.70;947.20;;;;;;5053094;28;20039;-60
2021/01/20 11:20:27;;;;;;;29.42;17.33;;;436.00;947.20;;;;;;5052947;28;20496;-60
2021/01/20 11:22:53;;;;;;;71.85;45.17;;;461.60;870.40;;;;;;5052872;28;20045;-59
2021/01/20 11:25:19;;;;;;;24.88;15.73;;;487.10;793.60;;;;;;5053234;28;20470;-59
2021/01/20 11:27:45;;;;;;;51.42;33.00;;;512.50;742.40;;;;;;5053087;28;20032;-59
2021/01/20 11:30:11;;;;;;;65.70;39.55;;;537.70;716.80;;;;;;5052944;28;20501;-60
2021/01/20 11:32:37;;;;;;;52.60;33.83;;;538.30;716.80;;;;;;5053140;28;20025;-58
2021/01/20 11:35:03;;;;;;;55.13;37.03;;;512.90;691.20;;;;;;5053100;28;20037;-59
2021/01/20 11:37:32;;;;;;;27.95;17.63;;;487.10;793.60;;;;;;5052931;28;20021;-59
2021/01/20 11:40:03;;;;;;;34.38;19.75;;;461.40;844.80;;;;;;5053710;28;20120;-61
2021/01/20 11:42:29;;;;;;;43.20;27.67;;;435.60;921.60;;;;;;5059703;28;20104;-61
2021/01/20 11:44:55;;;;;;;28.30;17.85;;;435.30;972.80;;;;;;5060024;28;20029;-66
2021/01/20 11:47:20;;;;;;;43.03;29.17;;;410.30;998.40;;;;;;5059919;28;20032;-71
2021/01/20 11:49:46;;;;;;;64.80;39.78;;;410.20;1024.00;;;;;;5060013;28;20096;-67
2021/01/20 11:52:12;;;;;;;44.10;28.85;;;410.20;1024.00;;;;;;5059845;28;20386;-68
2021/01/20 11:54:37;;;;;;;35.88;26.05;;;435.40;972.80;;;;;;5059931;28;20044;-68
2021/01/20 11:57:03;;;;;;;42.53;29.33;;;436.00;921.60;;;;;;5059485;28;20028;-71
2021/01/20 11:59:29;;;;;;;40.88;30.67;;;486.60;844.80;;;;;;5059944;28;20041;-72
2021/01/20 12:01:55;;;;;;;24.85;17.70;;;512.80;742.40;;;;;;5059910;28;20382;-67
2021/01/20 12:04:20;;;;;;;31.98;19.40;;;512.40;768.00;;;;;;5060272;28;20025;-62
2021/01/20 12:06:46;;;;;;;24.45;15.57;;;512.40;742.40;;;;;;5060033;28;20424;-71
2021/01/20 12:09:12;;;;;;;30.42;21.20;;;512.60;742.40;;;;;;5059890;28;20025;-64